createdAt,value
2019-03-28T00:01:15.304Z,13.50
2019-03-28T00:04:03.480Z,12.17
2019-03-28T00:06:51.703Z,13.57
2019-03-28T00:09:40.182Z,16.30
2019-03-28T00:12:28.002Z,12.53
2019-03-28T00:15:16.287Z,13.57
2019-03-28T00:18:04.420Z,16.17
2019-03-28T00:20:52.532Z,13.43
2019-03-28T00:23:58.113Z,19.60
2019-03-28T00:26:46.540Z,13.90
2019-03-28T00:29:34.515Z,15.07
2019-03-28T00:32:22.897Z,15.53
2019-03-28T00:35:10.640Z,13.70
2019-03-28T00:37:58.668Z,13.43
2019-03-28T00:40:47.169Z,14.07
2019-03-28T00:43:35.043Z,15.77
2019-03-28T00:46:23.058Z,16.20
2019-03-28T00:49:11.552Z,15.50
2019-03-28T00:51:59.619Z,13.03
2019-03-28T00:54:48.043Z,16.37
2019-03-28T00:57:36.178Z,15.73
2019-03-28T01:00:24.580Z,17.87
2019-03-28T01:03:12.518Z,15.47
2019-03-28T01:06:00.543Z,14.87
2019-03-28T01:08:48.646Z,18.57
2019-03-28T01:11:37.097Z,15.50
2019-03-28T01:14:25.502Z,15.57
2019-03-28T01:17:13.657Z,15.27
2019-03-28T01:20:01.524Z,17.20
2019-03-28T01:22:50.588Z,17.30
2019-03-28T01:25:38.700Z,12.80
2019-03-28T01:28:26.679Z,14.80
2019-03-28T01:31:14.953Z,17.27
2019-03-28T01:34:03.340Z,15.57
2019-03-28T01:36:51.300Z,15.07
2019-03-28T01:39:39.485Z,17.50
2019-03-28T01:42:27.542Z,16.27
2019-03-28T01:45:16.429Z,15.30
2019-03-28T01:48:04.595Z,16.67
2019-03-28T01:50:52.441Z,17.90
2019-03-28T01:53:40.781Z,16.00
2019-03-28T01:56:28.715Z,20.47
2019-03-28T01:59:16.677Z,16.97
2019-03-28T02:02:04.966Z,17.70
2019-03-28T02:04:53.391Z,20.73
2019-03-28T02:07:41.353Z,19.13
2019-03-28T02:10:29.385Z,21.53
2019-03-28T02:13:17.774Z,19.13
2019-03-28T02:16:06.018Z,19.70
2019-03-28T02:18:54.337Z,17.93
2019-03-28T02:21:42.703Z,17.40
2019-03-28T02:24:30.702Z,19.23
2019-03-28T02:27:24.399Z,19.37
2019-03-28T02:30:09.636Z,18.03
2019-03-28T02:32:57.572Z,18.07
2019-03-28T02:35:46.086Z,18.80
2019-03-28T02:38:34.464Z,20.60
2019-03-28T02:41:22.885Z,18.23
2019-03-28T02:44:11.900Z,21.43
2019-03-28T02:47:00.657Z,19.57
2019-03-28T02:49:50.810Z,18.07
2019-03-28T02:52:38.962Z,22.13
2019-03-28T02:55:26.824Z,20.07
2019-03-28T02:58:14.604Z,21.87
2019-03-28T03:01:02.891Z,19.97
2019-03-28T03:03:51.293Z,21.67
2019-03-28T03:06:39.743Z,19.70
2019-03-28T03:09:28.111Z,20.57
2019-03-28T03:12:16.274Z,21.23
2019-03-28T03:15:04.656Z,21.70
2019-03-28T03:17:53.050Z,19.80
2019-03-28T03:20:40.886Z,23.23
2019-03-28T03:23:28.872Z,23.07
2019-03-28T03:26:16.555Z,21.90
2019-03-28T03:29:04.684Z,20.87
2019-03-28T03:31:53.936Z,21.57
2019-03-28T03:34:42.087Z,23.10
2019-03-28T03:37:30.366Z,22.53
2019-03-28T03:40:19.020Z,21.93
2019-03-28T03:43:07.205Z,23.80
2019-03-28T03:45:55.126Z,26.33
2019-03-28T03:48:43.452Z,24.57
2019-03-28T03:51:31.258Z,21.83
2019-03-28T03:54:19.321Z,21.80
2019-03-28T03:57:07.843Z,26.90
2019-03-28T03:59:55.482Z,22.97
2019-03-28T04:02:43.390Z,25.43
2019-03-28T04:05:32.076Z,22.63
2019-03-28T04:08:20.101Z,25.20
2019-03-28T04:11:08.238Z,22.23
2019-03-28T04:13:56.616Z,24.30
2019-03-28T04:16:45.671Z,23.37
2019-03-28T04:19:33.555Z,29.67
2019-03-28T04:22:21.429Z,25.80
2019-03-28T04:25:09.811Z,23.77
2019-03-28T04:27:58.333Z,24.23
2019-03-28T04:30:46.753Z,26.83
2019-03-28T04:33:35.759Z,28.10
2019-03-28T04:36:23.841Z,25.97
2019-03-28T04:39:12.042Z,24.97
2019-03-28T04:42:00.070Z,29.37
2019-03-28T04:44:48.173Z,28.97
2019-03-28T04:47:36.369Z,28.70
2019-03-28T04:50:24.469Z,29.77
2019-03-28T04:53:12.542Z,29.87
2019-03-28T04:56:00.650Z,29.77
2019-03-28T04:58:49.349Z,26.17
2019-03-28T05:01:37.567Z,30.83
2019-03-28T05:04:25.569Z,24.97
2019-03-28T05:07:14.094Z,28.50
2019-03-28T05:10:02.059Z,27.07
2019-03-28T05:12:49.981Z,27.87
2019-03-28T05:15:38.011Z,30.73
2019-03-28T05:18:26.527Z,25.97
2019-03-28T05:21:14.820Z,30.47
2019-03-28T05:24:03.045Z,30.23
2019-03-28T05:26:51.206Z,27.00
2019-03-28T05:29:39.222Z,28.37
2019-03-28T05:32:27.186Z,32.60
2019-03-28T05:35:15.317Z,29.40
2019-03-28T05:38:04.184Z,29.27
2019-03-28T05:40:51.995Z,29.83
2019-03-28T05:43:39.719Z,27.43
2019-03-28T05:46:27.619Z,30.77
2019-03-28T05:49:15.376Z,27.33
2019-03-28T05:52:03.561Z,27.10
2019-03-28T05:54:51.614Z,26.57
2019-03-28T05:57:39.615Z,28.77
2019-03-28T06:00:27.878Z,30.80
2019-03-28T06:03:16.363Z,34.33
2019-03-28T06:06:04.718Z,30.10
2019-03-28T06:08:53.394Z,33.33
2019-03-28T06:11:42.058Z,36.37
2019-03-28T06:14:30.063Z,34.13
2019-03-28T06:17:18.055Z,31.70
2019-03-28T06:20:07.140Z,30.70
2019-03-28T06:22:55.092Z,30.10
2019-03-28T06:25:43.191Z,28.70
2019-03-28T06:28:30.822Z,32.57
2019-03-28T06:31:18.928Z,30.00
2019-03-28T06:34:07.312Z,30.60
2019-03-28T06:36:55.535Z,35.13
2019-03-28T06:39:43.751Z,35.63
2019-03-28T06:42:32.066Z,36.30
2019-03-28T06:45:20.025Z,31.47
2019-03-28T06:48:08.254Z,38.30
2019-03-28T06:50:56.133Z,35.80
2019-03-28T06:53:44.330Z,36.30
2019-03-28T06:56:32.593Z,35.00
2019-03-28T06:59:20.839Z,35.13
2019-03-28T07:02:09.083Z,34.53
2019-03-28T07:04:57.407Z,37.07
2019-03-28T07:07:45.311Z,37.80
2019-03-28T07:10:33.630Z,35.27
2019-03-28T07:13:21.539Z,36.47
2019-03-28T07:16:09.755Z,41.33
2019-03-28T07:18:58.068Z,38.03
2019-03-28T07:21:46.326Z,35.67
2019-03-28T07:24:34.707Z,32.30
2019-03-28T07:27:22.951Z,35.63
2019-03-28T07:30:12.550Z,30.87
2019-03-28T07:33:00.918Z,33.23
2019-03-28T07:35:49.273Z,31.87
2019-03-28T07:38:37.508Z,31.17
2019-03-28T07:41:25.753Z,26.97
2019-03-28T07:44:14.343Z,30.00
2019-03-28T07:47:01.997Z,31.83
2019-03-28T07:49:49.987Z,29.00
2019-03-28T07:52:38.375Z,32.47
2019-03-28T07:55:26.562Z,32.77
2019-03-28T07:58:14.675Z,28.90
2019-03-28T08:01:02.298Z,32.77
2019-03-28T08:03:51.608Z,33.20
2019-03-28T08:06:49.742Z,28.23
2019-03-28T08:09:36.500Z,29.53
2019-03-28T08:12:23.059Z,31.73
2019-03-28T08:15:10.254Z,27.83
2019-03-28T08:17:58.530Z,27.73
2019-03-28T08:20:46.414Z,30.80
2019-03-28T08:23:35.458Z,30.67
2019-03-28T08:26:24.206Z,27.67
2019-03-28T08:29:12.479Z,27.77
2019-03-28T08:32:01.312Z,26.77
2019-03-28T08:34:50.943Z,29.83
2019-03-28T08:37:40.660Z,27.00
2019-03-28T08:40:39.767Z,29.03
2019-03-28T08:43:26.772Z,25.13
2019-03-28T08:46:15.150Z,23.57
2019-03-28T08:49:03.722Z,25.10
2019-03-28T08:51:52.308Z,25.60
2019-03-28T08:54:40.321Z,25.23
2019-03-28T08:57:28.310Z,25.27
2019-03-28T09:00:17.334Z,23.80
2019-03-28T09:03:05.719Z,20.73
2019-03-28T09:05:53.759Z,21.80
2019-03-28T09:08:42.259Z,20.53
2019-03-28T09:11:30.779Z,22.43
2019-03-28T09:14:19.048Z,20.53
2019-03-28T09:17:06.728Z,21.53
2019-03-28T09:19:54.676Z,20.90
2019-03-28T09:22:42.580Z,19.27
2019-03-28T09:25:30.219Z,22.57
2019-03-28T09:28:17.778Z,18.20
2019-03-28T09:31:18.937Z,16.00
2019-03-28T09:33:55.822Z,14.33
2019-03-28T09:36:44.317Z,16.53
2019-03-28T09:39:32.660Z,17.23
2019-03-28T09:42:21.213Z,14.10
2019-03-28T09:45:09.633Z,15.37
2019-03-28T09:47:57.693Z,15.30
2019-03-28T09:50:45.608Z,13.27
2019-03-28T09:53:33.640Z,16.43
2019-03-28T09:56:21.721Z,14.83
2019-03-28T09:59:09.933Z,12.13
2019-03-28T10:01:57.971Z,14.00
2019-03-28T10:04:46.524Z,13.13
2019-03-28T10:07:34.490Z,13.27
2019-03-28T10:10:22.882Z,12.90
2019-03-28T10:13:10.846Z,13.43
2019-03-28T10:15:59.294Z,11.80
2019-03-28T10:18:47.535Z,13.60
2019-03-28T10:21:37.658Z,10.03
2019-03-28T10:24:25.524Z,8.83
2019-03-28T10:27:13.612Z,7.90
2019-03-28T10:30:02.637Z,9.13
2019-03-28T10:32:50.302Z,9.10
2019-03-28T10:35:38.484Z,8.47
2019-03-28T10:38:26.677Z,10.03
2019-03-28T10:41:14.990Z,11.07
2019-03-28T10:44:03.372Z,9.57
2019-03-28T10:46:51.595Z,11.43
2019-03-28T10:49:39.715Z,8.47
2019-03-28T10:52:27.566Z,9.87
2019-03-28T10:55:16.598Z,10.90
2019-03-28T10:58:17.657Z,10.60
2019-03-28T11:00:55.828Z,10.13
2019-03-28T11:03:44.430Z,11.03
2019-03-28T11:06:32.705Z,7.50
2019-03-28T11:09:20.834Z,10.83
2019-03-28T11:12:09.102Z,8.47
2019-03-28T11:14:56.864Z,11.17
2019-03-28T11:17:44.852Z,10.00
2019-03-28T11:20:33.254Z,9.37
2019-03-28T11:23:21.211Z,7.43
2019-03-28T11:26:09.381Z,5.97
2019-03-28T11:29:00.819Z,7.97
2019-03-28T11:31:51.929Z,6.93
2019-03-28T11:34:37.681Z,7.27
2019-03-28T11:37:26.844Z,5.97
2019-03-28T11:40:17.204Z,5.70
2019-03-28T11:43:05.380Z,5.90
2019-03-28T11:45:53.773Z,6.80
2019-03-28T11:48:41.610Z,6.03
2019-03-28T11:51:30.560Z,5.37
2019-03-28T11:54:18.692Z,4.83
2019-03-28T11:57:07.058Z,6.50
2019-03-28T11:59:57.981Z,5.63
2019-03-28T12:02:45.094Z,5.97
2019-03-28T12:05:33.065Z,7.77
2019-03-28T12:08:21.106Z,5.10
2019-03-28T12:11:09.505Z,4.60
2019-03-28T12:13:59.674Z,4.50
2019-03-28T12:16:49.781Z,3.53
2019-03-28T12:19:37.893Z,3.93
2019-03-28T12:22:25.861Z,3.80
2019-03-28T12:25:14.350Z,5.90
2019-03-28T12:28:02.595Z,4.17
2019-03-28T12:30:51.887Z,4.23
2019-03-28T12:33:39.715Z,4.27
2019-03-28T12:36:27.545Z,4.07
2019-03-28T12:39:16.011Z,4.00
2019-03-28T12:42:04.157Z,3.27
2019-03-28T12:44:57.368Z,2.97
2019-03-28T12:47:43.411Z,2.83
2019-03-28T12:50:30.958Z,2.87
2019-03-28T12:53:19.150Z,2.70
2019-03-28T12:56:07.077Z,3.53
2019-03-28T12:58:55.352Z,2.63
2019-03-28T13:01:43.875Z,3.57
2019-03-28T13:04:31.896Z,3.73
2019-03-28T13:07:20.570Z,2.73
2019-03-28T13:10:09.224Z,3.30
2019-03-28T13:12:58.996Z,2.10
2019-03-28T13:15:47.254Z,4.40
2019-03-28T13:18:36.157Z,2.63
2019-03-28T13:21:24.270Z,3.27
2019-03-28T13:24:11.886Z,2.60
2019-03-28T13:27:00.266Z,3.83
2019-03-28T13:29:49.185Z,2.50
2019-03-28T13:32:42.133Z,2.23
2019-03-28T13:35:26.826Z,1.97
2019-03-28T13:38:15.185Z,5.93
2019-03-28T13:41:03.407Z,5.50
2019-03-28T13:43:51.892Z,3.07
2019-03-28T13:46:40.169Z,3.97
2019-03-28T13:49:28.225Z,6.67
2019-03-28T13:52:16.522Z,2.57
2019-03-28T13:55:04.763Z,3.73
2019-03-28T13:57:53.381Z,3.07
2019-03-28T14:00:41.585Z,3.07
2019-03-28T14:03:29.571Z,4.30
2019-03-28T14:06:17.841Z,3.63
2019-03-28T14:09:07.343Z,3.50
2019-03-28T14:11:54.898Z,4.30
2019-03-28T14:14:42.756Z,5.27
2019-03-28T14:17:30.864Z,3.63
2019-03-28T14:20:22.228Z,4.20
2019-03-28T14:23:08.662Z,5.07
2019-03-28T14:25:56.359Z,4.27
2019-03-28T14:28:44.175Z,5.57
2019-03-28T14:31:32.183Z,5.87
2019-03-28T14:34:20.221Z,5.07
2019-03-28T14:37:07.852Z,4.20
2019-03-28T14:39:56.087Z,8.00
2019-03-28T14:42:44.587Z,5.10
2019-03-28T14:45:32.939Z,4.67
2019-03-28T14:48:21.485Z,4.43
2019-03-28T14:51:09.265Z,4.33
2019-03-28T14:53:57.626Z,5.57
2019-03-28T14:56:45.939Z,6.33
2019-03-28T14:59:34.669Z,4.93
2019-03-28T15:02:22.852Z,5.27
2019-03-28T15:05:10.637Z,5.80
2019-03-28T15:07:58.747Z,5.23
2019-03-28T15:10:46.716Z,4.63
2019-03-28T15:13:34.589Z,3.70
2019-03-28T15:16:22.774Z,7.17
2019-03-28T15:19:11.018Z,4.90
2019-03-28T15:21:59.432Z,7.10
2019-03-28T15:24:47.883Z,4.30
2019-03-28T15:27:36.201Z,3.93
2019-03-28T15:30:24.189Z,4.33
2019-03-28T15:33:12.679Z,5.17
2019-03-28T15:36:00.750Z,5.80
2019-03-28T15:38:51.072Z,4.20
2019-03-28T15:41:39.008Z,4.00
2019-03-28T15:44:26.993Z,3.83
2019-03-28T15:47:15.040Z,7.47
2019-03-28T15:50:03.682Z,4.27
2019-03-28T15:52:54.167Z,2.80
2019-03-28T15:55:42.650Z,5.83
2019-03-28T15:58:30.778Z,3.77
2019-03-28T16:01:18.410Z,4.40
2019-03-28T16:04:06.479Z,4.77
2019-03-28T16:06:54.489Z,3.67
2019-03-28T16:09:42.630Z,3.30
2019-03-28T16:12:30.635Z,5.27
2019-03-28T16:15:18.770Z,3.50
2019-03-28T16:18:06.504Z,3.17
2019-03-28T16:20:54.715Z,4.03
2019-03-28T16:23:42.416Z,5.30
2019-03-28T16:26:30.772Z,3.27
2019-03-28T16:29:19.317Z,4.60
2019-03-28T16:32:07.596Z,3.60
2019-03-28T16:34:55.856Z,5.40
2019-03-28T16:37:43.698Z,4.20
2019-03-28T16:40:31.766Z,3.37
2019-03-28T16:43:20.012Z,5.50
2019-03-28T16:46:08.477Z,3.17
2019-03-28T16:48:56.382Z,3.57
2019-03-28T16:51:44.132Z,3.33
2019-03-28T16:54:31.950Z,3.63
2019-03-28T16:57:20.296Z,5.10
2019-03-28T17:00:11.186Z,5.17
2019-03-28T17:02:59.175Z,4.93
2019-03-28T17:05:47.302Z,3.83
2019-03-28T17:08:35.490Z,6.67
2019-03-28T17:11:23.967Z,5.13
2019-03-28T17:14:11.930Z,4.87
2019-03-28T17:16:59.895Z,4.73
2019-03-28T17:19:48.414Z,6.13
2019-03-28T17:22:37.182Z,4.43
2019-03-28T17:25:25.483Z,4.20
2019-03-28T17:28:13.610Z,5.33
2019-03-28T17:31:02.209Z,4.47
2019-03-28T17:33:50.500Z,8.57
2019-03-28T17:36:38.953Z,4.63
2019-03-28T17:39:27.106Z,7.43
2019-03-28T17:42:15.044Z,4.73
2019-03-28T17:45:03.045Z,4.30
2019-03-28T17:47:51.134Z,5.87
2019-03-28T17:50:39.174Z,7.33
2019-03-28T17:53:27.526Z,7.73
2019-03-28T17:56:15.967Z,6.90
2019-03-28T17:59:04.419Z,7.23
2019-03-28T18:01:52.643Z,7.93
2019-03-28T18:04:47.848Z,7.60
2019-03-28T18:07:30.628Z,7.87
2019-03-28T18:10:19.037Z,9.70
2019-03-28T18:13:07.539Z,8.73
2019-03-28T18:15:55.758Z,7.30
2019-03-28T18:18:43.696Z,6.90
2019-03-28T18:21:31.954Z,7.43
2019-03-28T18:24:20.187Z,7.67
2019-03-28T18:27:08.946Z,8.00
2019-03-28T18:29:57.064Z,10.00
2019-03-28T18:32:45.334Z,8.57
2019-03-28T18:35:33.021Z,7.73
2019-03-28T18:38:21.099Z,9.57
2019-03-28T18:41:09.150Z,8.60
2019-03-28T18:43:57.076Z,8.20
2019-03-28T18:46:44.853Z,9.83
2019-03-28T18:49:33.018Z,7.30
2019-03-28T18:52:20.625Z,8.07
2019-03-28T18:55:09.580Z,7.83
2019-03-28T18:57:57.595Z,7.63
2019-03-28T19:00:48.057Z,9.30
2019-03-28T19:03:34.941Z,11.93
2019-03-28T19:06:22.683Z,8.53
2019-03-28T19:09:10.855Z,10.03
2019-03-28T19:11:59.155Z,11.50
2019-03-28T19:14:47.045Z,9.30
2019-03-28T19:17:35.254Z,8.67
2019-03-28T19:20:23.660Z,11.67
2019-03-28T19:23:11.714Z,9.53
2019-03-28T19:26:00.812Z,10.93
2019-03-28T19:28:48.619Z,8.83
2019-03-28T19:31:36.474Z,10.20
2019-03-28T19:37:26.701Z,9.30
2019-03-28T19:40:15.440Z,11.03
2019-03-28T19:43:03.442Z,10.17
2019-03-28T19:45:52.116Z,9.37
2019-03-28T19:48:41.887Z,9.37
2019-03-28T19:51:30.051Z,10.73
2019-03-28T19:54:17.766Z,9.90
2019-03-28T19:57:08.507Z,11.50
2019-03-28T19:59:58.627Z,11.53
2019-03-28T20:02:49.046Z,10.20
2019-03-28T20:05:47.347Z,13.73
2019-03-28T20:08:27.622Z,10.40
2019-03-28T20:11:15.320Z,10.20
2019-03-28T20:14:03.362Z,13.33
2019-03-28T20:16:51.876Z,9.70
2019-03-28T20:19:40.528Z,9.53
2019-03-28T20:22:28.808Z,12.00
2019-03-28T20:25:16.841Z,8.27
2019-03-28T20:28:04.971Z,10.03
2019-03-28T20:30:53.937Z,9.53
2019-03-28T20:33:42.325Z,10.40
2019-03-28T20:36:37.678Z,9.63
2019-03-28T20:39:20.020Z,11.53
2019-03-28T20:42:08.946Z,11.17
2019-03-28T20:44:57.207Z,10.87
2019-03-28T20:47:44.927Z,13.27
2019-03-28T20:50:33.383Z,10.20
2019-03-28T20:53:21.508Z,9.63
2019-03-28T20:56:09.655Z,11.93
2019-03-28T20:58:57.525Z,10.43
2019-03-28T21:01:46.092Z,11.07
2019-03-28T21:04:34.697Z,9.27
2019-03-28T21:07:23.021Z,9.13
2019-03-28T21:10:25.096Z,11.13
2019-03-28T21:13:13.051Z,11.67
2019-03-28T21:16:01.423Z,11.30
2019-03-28T21:18:49.965Z,12.13
2019-03-28T21:21:38.249Z,10.47
2019-03-28T21:24:26.343Z,12.73
2019-03-28T21:27:14.522Z,10.87
2019-03-28T21:30:03.442Z,11.63
2019-03-28T21:32:55.621Z,14.10
2019-03-28T21:35:41.136Z,12.83
2019-03-28T21:38:30.365Z,12.80
2019-03-28T21:41:18.315Z,13.93
2019-03-28T21:44:06.379Z,13.87
2019-03-28T21:46:54.474Z,12.83
2019-03-28T21:49:43.151Z,13.97
2019-03-28T21:52:31.459Z,11.87
2019-03-28T21:55:19.501Z,13.53
2019-03-28T21:58:07.693Z,14.13
2019-03-28T22:00:55.575Z,15.90
2019-03-28T22:03:43.448Z,13.17
2019-03-28T22:06:42.455Z,12.60
2019-03-28T22:09:21.166Z,14.23
2019-03-28T22:12:09.283Z,14.20
2019-03-28T22:14:57.589Z,14.87
2019-03-28T22:17:45.988Z,12.43
2019-03-28T22:20:33.986Z,12.73
2019-03-28T22:23:22.100Z,12.87
2019-03-28T22:26:10.734Z,15.00
2019-03-28T22:28:59.222Z,15.70
2019-03-28T22:31:47.113Z,13.60
2019-03-28T22:34:34.954Z,14.70
2019-03-28T22:37:22.858Z,14.17
2019-03-28T22:40:12.065Z,17.87
2019-03-28T22:43:00.126Z,15.37
2019-03-28T22:45:48.612Z,16.70
2019-03-28T22:48:36.829Z,15.13
2019-03-28T22:51:24.784Z,13.80
2019-03-28T22:54:12.790Z,15.20
2019-03-28T22:57:00.655Z,13.07
2019-03-28T22:59:48.783Z,14.53
2019-03-28T23:02:37.241Z,16.23
2019-03-28T23:05:25.552Z,16.07
2019-03-28T23:08:13.950Z,16.07
2019-03-28T23:11:02.065Z,17.30
2019-03-28T23:13:50.769Z,13.77
2019-03-28T23:16:38.277Z,14.07
2019-03-28T23:19:26.370Z,16.23
2019-03-28T23:22:14.439Z,17.13
2019-03-28T23:25:02.802Z,17.50
2019-03-28T23:27:51.043Z,14.57
2019-03-28T23:30:39.051Z,15.70
2019-03-28T23:33:27.074Z,17.30
2019-03-28T23:36:15.146Z,15.13
2019-03-28T23:39:04.272Z,15.67
2019-03-28T23:41:52.648Z,17.07
2019-03-28T23:44:40.519Z,16.73
2019-03-28T23:47:29.986Z,16.57
2019-03-28T23:50:18.460Z,17.33
2019-03-28T23:53:06.453Z,15.70
2019-03-28T23:55:54.484Z,15.83
2019-03-28T23:58:42.423Z,18.67
